createdAt,value
2018-07-22T00:00:10.865Z,8.00
2018-07-22T00:02:39.957Z,8.50
2018-07-22T00:05:08.749Z,8.90
2018-07-22T00:07:37.602Z,9.60
2018-07-22T00:10:08.825Z,8.80
2018-07-22T00:12:37.336Z,9.47
2018-07-22T00:15:12.063Z,9.87
2018-07-22T00:17:41.633Z,9.80
2018-07-22T00:20:10.212Z,10.07
2018-07-22T00:22:38.748Z,9.63
2018-07-22T00:25:07.401Z,9.33
2018-07-22T00:27:35.981Z,9.87
2018-07-22T00:30:04.877Z,9.20
2018-07-22T00:32:33.391Z,8.70
2018-07-22T00:35:01.960Z,9.17
2018-07-22T00:37:30.530Z,9.00
2018-07-22T00:39:59.096Z,10.30
2018-07-22T00:42:27.647Z,9.83
2018-07-22T00:44:56.104Z,9.20
2018-07-22T00:47:24.644Z,9.60
2018-07-22T00:49:53.244Z,10.13
2018-07-22T00:52:21.823Z,9.70
2018-07-22T00:54:50.365Z,10.00
2018-07-22T00:57:18.837Z,9.77
2018-07-22T00:59:47.395Z,10.97
2018-07-22T01:02:16.926Z,9.50
2018-07-22T01:04:45.505Z,8.80
2018-07-22T01:07:14.080Z,10.00
2018-07-22T01:09:42.594Z,10.43
2018-07-22T01:12:11.161Z,8.97
2018-07-22T01:14:39.695Z,10.03
2018-07-22T01:17:08.202Z,9.67
2018-07-22T01:19:36.709Z,9.20
2018-07-22T01:22:05.236Z,9.93
2018-07-22T01:24:33.736Z,10.13
2018-07-22T01:27:02.227Z,9.20
2018-07-22T01:29:30.716Z,9.37
2018-07-22T01:31:59.380Z,9.33
2018-07-22T01:34:27.892Z,9.40
2018-07-22T01:36:56.414Z,9.07
2018-07-22T01:39:24.975Z,9.43
2018-07-22T01:41:54.621Z,9.77
2018-07-22T01:44:23.269Z,8.77
2018-07-22T01:46:51.876Z,9.00
2018-07-22T01:49:20.385Z,9.90
2018-07-22T01:51:48.968Z,10.23
2018-07-22T01:54:17.454Z,9.50
2018-07-22T01:56:46.102Z,10.37
2018-07-22T01:59:14.817Z,9.07
2018-07-22T02:01:43.238Z,11.00
2018-07-22T02:04:11.764Z,9.70
2018-07-22T02:06:40.375Z,10.80
2018-07-22T02:09:09.679Z,10.67
2018-07-22T02:11:38.206Z,10.60
2018-07-22T02:14:06.684Z,11.27
2018-07-22T02:16:35.386Z,10.73
2018-07-22T02:19:03.921Z,11.37
2018-07-22T02:21:32.502Z,11.00
2018-07-22T02:24:00.990Z,9.83
2018-07-22T02:26:29.589Z,10.47
2018-07-22T02:28:58.096Z,11.10
2018-07-22T02:31:26.768Z,10.83
2018-07-22T02:33:55.267Z,11.63
2018-07-22T02:36:23.793Z,11.47
2018-07-22T02:38:52.330Z,12.67
2018-07-22T02:41:20.834Z,11.03
2018-07-22T02:43:49.378Z,11.03
2018-07-22T02:46:17.939Z,11.60
2018-07-22T02:48:46.561Z,12.00
2018-07-22T02:51:15.140Z,12.13
2018-07-22T02:53:43.703Z,11.50
2018-07-22T02:56:12.216Z,11.90
2018-07-22T02:58:40.695Z,11.50
2018-07-22T03:01:09.241Z,11.67
2018-07-22T03:03:37.946Z,11.90
2018-07-22T03:06:06.534Z,11.10
2018-07-22T03:08:34.988Z,12.50
2018-07-22T03:11:03.513Z,12.40
2018-07-22T03:13:32.034Z,13.13
2018-07-22T03:16:00.573Z,11.90
2018-07-22T03:18:29.207Z,11.70
2018-07-22T03:20:57.793Z,12.77
2018-07-22T03:23:26.345Z,11.50
2018-07-22T03:25:54.901Z,13.17
2018-07-22T03:28:23.465Z,11.97
2018-07-22T03:30:52.006Z,12.60
2018-07-22T03:33:20.549Z,13.57
2018-07-22T03:35:49.048Z,13.50
2018-07-22T03:38:17.533Z,14.07
2018-07-22T03:40:46.083Z,14.00
2018-07-22T03:43:14.669Z,15.17
2018-07-22T03:45:43.255Z,13.97
2018-07-22T03:48:11.855Z,14.73
2018-07-22T03:50:40.405Z,14.67
2018-07-22T03:53:08.948Z,13.93
2018-07-22T03:55:37.486Z,15.10
2018-07-22T03:58:06.120Z,13.57
2018-07-22T04:00:34.732Z,15.07
2018-07-22T04:03:03.277Z,13.90
2018-07-22T04:05:31.796Z,13.40
2018-07-22T04:08:00.469Z,14.50
2018-07-22T04:10:29.051Z,13.20
2018-07-22T04:12:57.853Z,15.43
2018-07-22T04:15:26.492Z,13.73
2018-07-22T04:17:55.264Z,15.07
2018-07-22T04:20:23.858Z,14.73
2018-07-22T04:22:52.487Z,14.80
2018-07-22T04:25:21.026Z,13.43
2018-07-22T04:27:49.513Z,14.00
2018-07-22T04:30:18.019Z,14.50
2018-07-22T04:32:46.635Z,13.20
2018-07-22T04:35:15.228Z,13.83
2018-07-22T04:37:43.748Z,15.23
2018-07-22T04:40:12.232Z,14.70
2018-07-22T04:42:40.754Z,13.73
2018-07-22T04:45:09.290Z,13.90
2018-07-22T04:47:37.826Z,13.97
2018-07-22T04:50:06.378Z,14.10
2018-07-22T04:52:34.955Z,13.83
2018-07-22T04:55:03.486Z,14.90
2018-07-22T04:57:32.149Z,12.10
2018-07-22T05:00:00.737Z,13.07
2018-07-22T05:02:29.366Z,13.43
2018-07-22T05:04:57.936Z,12.00
2018-07-22T05:07:26.504Z,12.13
2018-07-22T05:09:55.007Z,12.67
2018-07-22T05:12:23.578Z,11.63
2018-07-22T05:14:53.229Z,10.33
2018-07-22T05:17:21.715Z,11.10
2018-07-22T05:19:50.249Z,10.63
2018-07-22T05:22:18.826Z,11.30
2018-07-22T05:24:47.339Z,11.13
2018-07-22T05:27:15.816Z,11.40
2018-07-22T05:29:44.377Z,11.43
2018-07-22T05:32:12.892Z,11.27
2018-07-22T05:34:41.437Z,10.97
2018-07-22T05:37:10.071Z,11.13
2018-07-22T05:39:38.574Z,11.07
2018-07-22T05:42:07.128Z,11.90
2018-07-22T05:44:37.880Z,10.60
2018-07-22T05:47:07.422Z,11.87
2018-07-22T05:49:35.990Z,10.67
2018-07-22T05:52:04.843Z,11.17
2018-07-22T05:54:33.429Z,11.27
2018-07-22T05:57:02.012Z,10.97
2018-07-22T05:59:30.152Z,11.07
2018-07-22T06:01:58.818Z,11.30
2018-07-22T06:04:27.370Z,11.53
2018-07-22T06:06:56.166Z,10.00
2018-07-22T06:09:24.722Z,10.57
2018-07-22T06:11:53.398Z,10.17
2018-07-22T06:14:21.975Z,11.80
2018-07-22T06:16:50.629Z,10.13
2018-07-22T06:19:19.257Z,10.53
2018-07-22T06:21:47.829Z,10.70
2018-07-22T06:24:16.413Z,11.57
2018-07-22T06:26:44.895Z,11.50
2018-07-22T06:29:13.457Z,11.13
2018-07-22T06:31:42.080Z,11.50
2018-07-22T06:34:10.642Z,11.47
2018-07-22T06:36:39.240Z,10.70
2018-07-22T06:39:10.069Z,11.40
2018-07-22T06:41:38.701Z,11.90
2018-07-22T06:44:07.201Z,11.70
2018-07-22T06:46:36.058Z,9.63
2018-07-22T06:49:04.560Z,12.00
2018-07-22T06:51:33.114Z,10.70
2018-07-22T06:54:01.663Z,10.83
2018-07-22T06:56:30.208Z,11.40
2018-07-22T06:58:59.882Z,11.83
2018-07-22T07:01:28.452Z,11.90
2018-07-22T07:03:57.029Z,12.40
2018-07-22T07:06:25.641Z,11.53
2018-07-22T07:08:54.160Z,10.97
2018-07-22T07:11:22.745Z,12.20
2018-07-22T07:13:51.308Z,12.73
2018-07-22T07:16:19.940Z,12.43
2018-07-22T07:18:48.500Z,12.30
2018-07-22T07:21:17.125Z,12.13
2018-07-22T07:23:45.621Z,12.47
2018-07-22T07:26:15.348Z,12.47
2018-07-22T07:28:43.844Z,13.53
2018-07-22T07:31:13.456Z,10.93
2018-07-22T07:33:42.075Z,11.43
2018-07-22T07:36:11.634Z,12.50
2018-07-22T07:38:42.173Z,13.07
2018-07-22T07:41:11.683Z,12.40
2018-07-22T07:43:40.288Z,12.93
2018-07-22T07:46:09.164Z,11.87
2018-07-22T07:48:37.789Z,11.77
2018-07-22T07:51:08.345Z,11.43
2018-07-22T07:53:36.876Z,11.10
2018-07-22T07:56:05.548Z,10.90
2018-07-22T07:58:34.100Z,11.80
2018-07-22T08:01:02.684Z,13.23
2018-07-22T08:03:31.159Z,12.23
2018-07-22T08:05:59.651Z,12.50
2018-07-22T08:08:28.212Z,12.93
2018-07-22T08:10:56.772Z,12.27
2018-07-22T08:13:25.356Z,12.27
2018-07-22T08:15:54.204Z,13.13
2018-07-22T08:18:22.897Z,12.30
2018-07-22T08:20:51.441Z,11.30
2018-07-22T08:23:19.676Z,12.40
2018-07-22T08:25:48.209Z,12.00
2018-07-22T08:28:20.865Z,12.47
2018-07-22T08:30:49.512Z,12.60
2018-07-22T08:33:18.100Z,12.33
2018-07-22T08:35:47.831Z,13.67
2018-07-22T08:38:16.338Z,13.47
2018-07-22T08:40:44.912Z,12.97
2018-07-22T08:43:13.529Z,13.90
2018-07-22T08:45:42.148Z,14.13
2018-07-22T08:48:10.774Z,13.00
2018-07-22T08:50:39.213Z,14.37
2018-07-22T08:53:07.775Z,14.93
2018-07-22T08:55:36.446Z,15.13
2018-07-22T08:58:05.407Z,13.97
2018-07-22T09:00:33.937Z,15.40
2018-07-22T09:03:02.457Z,14.87
2018-07-22T09:05:31.062Z,15.50
2018-07-22T09:07:59.700Z,15.57
2018-07-22T09:10:28.273Z,14.87
2018-07-22T09:12:56.806Z,13.90
2018-07-22T09:15:25.327Z,15.07
2018-07-22T09:17:54.033Z,14.70
2018-07-22T09:20:22.554Z,16.17
2018-07-22T09:22:51.239Z,14.50
2018-07-22T09:25:19.831Z,15.40
2018-07-22T09:27:49.195Z,16.50
2018-07-22T09:30:17.742Z,14.80
2018-07-22T09:32:46.409Z,16.43
2018-07-22T09:35:14.624Z,15.70
2018-07-22T09:37:44.140Z,14.93
2018-07-22T09:40:12.697Z,13.87
2018-07-22T09:42:42.381Z,15.80
2018-07-22T09:45:10.960Z,15.23
2018-07-22T09:47:39.464Z,14.53
2018-07-22T09:50:08.146Z,16.13
2018-07-22T09:52:36.776Z,15.40
2018-07-22T09:55:05.392Z,14.60
2018-07-22T09:57:33.958Z,14.13
2018-07-22T10:00:02.506Z,15.17
2018-07-22T10:02:31.156Z,13.00
2018-07-22T10:04:59.742Z,15.17
2018-07-22T10:07:28.363Z,13.93
2018-07-22T10:09:56.892Z,13.67
2018-07-22T10:12:25.130Z,12.83
2018-07-22T10:14:55.728Z,13.63
2018-07-22T10:17:24.294Z,12.63
2018-07-22T10:19:56.091Z,13.10
2018-07-22T10:22:24.678Z,13.27
2018-07-22T10:24:53.225Z,12.60
2018-07-22T10:27:21.860Z,12.50
2018-07-22T10:29:50.407Z,12.00
2018-07-22T10:32:18.979Z,11.57
2018-07-22T10:34:47.497Z,12.10
2018-07-22T10:37:16.084Z,12.77
2018-07-22T10:39:44.568Z,13.37
2018-07-22T10:42:13.179Z,12.60
2018-07-22T10:44:41.772Z,14.20
2018-07-22T10:47:10.386Z,12.23
2018-07-22T10:49:39.036Z,11.23
2018-07-22T10:52:07.618Z,13.53
2018-07-22T10:54:36.184Z,12.03
2018-07-22T10:57:05.129Z,12.70
2018-07-22T10:59:33.718Z,12.10
2018-07-22T11:02:02.326Z,11.70
2018-07-22T11:04:31.310Z,12.07
2018-07-22T11:06:59.892Z,12.20
2018-07-22T11:09:28.591Z,11.80
2018-07-22T11:12:01.974Z,12.40
2018-07-22T11:14:30.616Z,12.63
2018-07-22T11:16:58.768Z,11.20
2018-07-22T11:19:27.396Z,12.97
2018-07-22T11:21:55.890Z,13.13
2018-07-22T11:24:24.521Z,11.87
2018-07-22T11:26:53.065Z,14.03
2018-07-22T11:29:21.900Z,13.17
2018-07-22T11:31:50.504Z,12.20
2018-07-22T11:34:19.005Z,11.80
2018-07-22T11:36:47.592Z,11.57
2018-07-22T11:39:16.100Z,12.10
2018-07-22T11:41:44.712Z,12.83
2018-07-22T11:44:13.270Z,12.47
2018-07-22T11:46:41.825Z,13.00
2018-07-22T11:49:10.430Z,13.50
2018-07-22T11:51:39.440Z,12.77
2018-07-22T11:54:08.437Z,12.70
2018-07-22T11:56:38.130Z,13.63
2018-07-22T11:59:08.673Z,13.33
2018-07-22T12:01:37.390Z,12.70
2018-07-22T12:04:06.150Z,13.27
2018-07-22T12:06:34.807Z,13.20
2018-07-22T12:09:04.861Z,12.63
2018-07-22T12:11:33.457Z,12.50
2018-07-22T12:14:02.078Z,11.80
2018-07-22T12:16:30.868Z,13.20
2018-07-22T12:18:59.465Z,11.20
2018-07-22T12:21:29.219Z,13.40
2018-07-22T12:23:57.430Z,13.10
2018-07-22T12:26:26.270Z,13.00
2018-07-22T12:28:54.974Z,13.40
2018-07-22T12:31:25.249Z,12.83
2018-07-22T12:33:53.845Z,12.10
2018-07-22T12:36:22.425Z,13.00
2018-07-22T12:38:51.061Z,13.77
2018-07-22T12:41:19.751Z,14.00
2018-07-22T12:43:48.594Z,13.10
2018-07-22T12:46:17.207Z,14.20
2018-07-22T12:48:45.879Z,14.87
2018-07-22T12:51:14.469Z,14.80
2018-07-22T12:53:43.013Z,13.07
2018-07-22T12:56:11.591Z,13.80
2018-07-22T12:58:40.281Z,11.90
2018-07-22T13:01:08.780Z,12.87
2018-07-22T13:03:38.447Z,11.97
2018-07-22T13:06:06.937Z,12.67
2018-07-22T13:08:35.398Z,11.63
2018-07-22T13:11:04.017Z,12.00
2018-07-22T13:13:32.648Z,11.90
2018-07-22T13:16:01.216Z,13.23
2018-07-22T13:18:29.682Z,12.97
2018-07-22T13:20:58.315Z,12.60
2018-07-22T13:23:26.481Z,13.63
2018-07-22T13:25:55.756Z,12.17
2018-07-22T13:28:24.387Z,13.13
2018-07-22T13:30:53.091Z,12.23
2018-07-22T13:33:21.771Z,11.70
2018-07-22T13:35:50.428Z,12.53
2018-07-22T13:38:19.195Z,12.40
2018-07-22T13:40:48.829Z,12.10
2018-07-22T13:43:17.445Z,11.50
2018-07-22T13:45:46.019Z,12.50
2018-07-22T13:48:14.601Z,12.93
2018-07-22T13:50:43.107Z,12.40
2018-07-22T13:53:11.581Z,14.07
2018-07-22T13:55:40.245Z,14.30
2018-07-22T13:58:08.755Z,12.77
2018-07-22T14:00:37.569Z,13.63
2018-07-22T14:03:06.429Z,13.67
2018-07-22T14:05:35.158Z,15.03
2018-07-22T14:08:03.904Z,16.07
2018-07-22T14:10:32.424Z,14.60
2018-07-22T14:13:00.938Z,12.60
2018-07-22T14:15:30.512Z,12.47
2018-07-22T14:17:59.137Z,11.40
2018-07-22T14:20:27.729Z,10.67
2018-07-22T14:22:56.373Z,11.20
2018-07-22T14:25:24.965Z,9.20
2018-07-22T14:27:53.908Z,9.30
2018-07-22T14:30:22.481Z,9.00
2018-07-22T14:32:52.033Z,9.30
2018-07-22T14:35:20.596Z,9.33
2018-07-22T14:37:49.193Z,9.47
2018-07-22T14:40:17.772Z,10.23
2018-07-22T14:42:47.130Z,11.30
2018-07-22T14:45:15.704Z,13.63
2018-07-22T14:47:44.344Z,13.37
2018-07-22T14:50:12.969Z,11.83
2018-07-22T14:52:41.443Z,15.00
2018-07-22T14:55:09.952Z,14.73
2018-07-22T14:57:38.584Z,13.83
2018-07-22T15:00:07.922Z,15.10
2018-07-22T15:02:36.426Z,15.03
2018-07-22T15:05:06.403Z,15.90
2018-07-22T15:07:35.009Z,15.53
2018-07-22T15:10:03.813Z,16.07
2018-07-22T15:12:32.399Z,14.90
2018-07-22T15:15:00.889Z,16.43
2018-07-22T15:17:29.548Z,15.80
2018-07-22T15:19:58.134Z,15.93
2018-07-22T15:22:26.606Z,15.67
2018-07-22T15:24:55.240Z,14.80
2018-07-22T15:27:23.758Z,15.07
2018-07-22T15:29:52.356Z,14.20
2018-07-22T15:32:22.633Z,13.60
2018-07-22T15:34:51.169Z,13.93
2018-07-22T15:37:19.731Z,14.43
2018-07-22T15:39:48.252Z,19.67
2018-07-22T15:42:16.824Z,15.07
2018-07-22T15:44:45.543Z,16.57
2018-07-22T15:47:14.083Z,23.50
2018-07-22T15:49:42.621Z,19.30
2018-07-22T15:52:12.207Z,17.40
2018-07-22T15:54:40.810Z,17.80
2018-07-22T15:57:09.304Z,19.37
2018-07-22T15:59:37.859Z,17.20
2018-07-22T16:02:06.508Z,18.07
2018-07-22T16:04:35.133Z,17.20
2018-07-22T16:07:03.774Z,18.80
2018-07-22T16:09:32.373Z,17.90
2018-07-22T16:12:01.041Z,19.30
2018-07-22T16:14:29.585Z,19.63
2018-07-22T16:16:58.129Z,21.33
2018-07-22T16:19:26.862Z,21.47
2018-07-22T16:21:55.415Z,21.03
2018-07-22T16:24:24.006Z,20.30
2018-07-22T16:26:52.613Z,20.33
2018-07-22T16:29:21.260Z,20.20
2018-07-22T16:31:49.935Z,19.20
2018-07-22T16:34:18.403Z,17.00
2018-07-22T16:36:46.928Z,18.10
2018-07-22T16:39:15.594Z,18.30
2018-07-22T16:41:44.265Z,18.57
2018-07-22T16:44:12.902Z,17.53
2018-07-22T16:46:41.445Z,18.27
2018-07-22T16:49:09.992Z,18.30
2018-07-22T16:51:38.460Z,19.63
2018-07-22T16:54:06.927Z,16.90
2018-07-22T16:56:35.496Z,18.07
2018-07-22T16:59:04.201Z,19.37
2018-07-22T17:01:32.715Z,19.93
2018-07-22T17:04:01.324Z,19.80
2018-07-22T17:06:29.871Z,18.77
2018-07-22T17:08:58.497Z,19.00
2018-07-22T17:11:27.007Z,19.20
2018-07-22T17:13:55.477Z,18.73
2018-07-22T17:16:24.041Z,19.70
2018-07-22T17:18:53.608Z,18.60
2018-07-22T17:21:22.154Z,16.77
2018-07-22T17:23:50.786Z,17.10
2018-07-22T17:26:19.420Z,17.77
2018-07-22T17:28:47.888Z,17.30
2018-07-22T17:31:16.564Z,16.93
2018-07-22T17:33:46.177Z,17.23
2018-07-22T17:36:14.669Z,16.80
2018-07-22T17:38:43.233Z,16.80
2018-07-22T17:41:11.815Z,15.37
2018-07-22T17:43:40.398Z,15.97
2018-07-22T17:46:09.875Z,13.83
2018-07-22T17:48:38.409Z,14.03
2018-07-22T17:51:07.106Z,13.23
2018-07-22T17:53:35.613Z,14.50
2018-07-22T17:56:04.157Z,12.17
2018-07-22T17:58:32.688Z,13.00
2018-07-22T18:01:01.238Z,13.87
2018-07-22T18:03:33.899Z,14.83
2018-07-22T18:06:04.886Z,13.97
2018-07-22T18:08:33.465Z,14.13
2018-07-22T18:11:02.149Z,14.07
2018-07-22T18:13:31.014Z,13.63
2018-07-22T18:15:59.539Z,12.03
2018-07-22T18:18:28.038Z,14.07
2018-07-22T18:20:56.544Z,13.70
2018-07-22T18:23:25.255Z,13.50
2018-07-22T18:25:53.773Z,13.70
2018-07-22T18:28:22.400Z,13.77
2018-07-22T18:30:50.905Z,14.40
2018-07-22T18:33:19.569Z,13.00
2018-07-22T18:35:48.140Z,14.10
2018-07-22T18:38:16.797Z,14.90
2018-07-22T18:40:45.363Z,14.90
2018-07-22T18:43:13.947Z,15.90
2018-07-22T18:45:42.464Z,15.40
2018-07-22T18:48:11.064Z,17.40
2018-07-22T18:50:39.600Z,18.10
2018-07-22T18:53:07.853Z,16.23
2018-07-22T18:55:36.408Z,16.27
2018-07-22T18:58:05.057Z,16.00
2018-07-22T19:00:33.580Z,16.23
2018-07-22T19:03:02.259Z,18.17
2018-07-22T19:05:30.798Z,15.63
2018-07-22T19:07:59.305Z,16.23
2018-07-22T19:10:27.996Z,18.60
2018-07-22T19:12:57.728Z,20.07
2018-07-22T19:15:26.325Z,21.93
2018-07-22T19:17:54.912Z,22.50
2018-07-22T19:20:23.601Z,22.33
2018-07-22T19:22:54.005Z,22.23
2018-07-22T19:25:22.564Z,22.33
2018-07-22T19:27:51.084Z,22.93
2018-07-22T19:30:19.645Z,22.77
2018-07-22T19:32:48.297Z,24.70
2018-07-22T19:35:16.870Z,24.77
2018-07-22T19:37:45.132Z,24.80
2018-07-22T19:40:13.707Z,24.13
2018-07-22T19:42:42.307Z,27.17
2018-07-22T19:45:10.914Z,24.33
2018-07-22T19:47:39.442Z,23.33
2018-07-22T19:50:08.995Z,23.20
2018-07-22T19:52:37.524Z,25.30
2018-07-22T19:55:06.309Z,25.00
2018-07-22T19:57:35.914Z,24.30
2018-07-22T20:00:05.734Z,25.00
2018-07-22T20:02:34.376Z,23.03
2018-07-22T20:05:03.031Z,22.00
2018-07-22T20:07:31.532Z,22.70
2018-07-22T20:09:59.740Z,20.83
2018-07-22T20:12:28.221Z,28.93
2018-07-22T20:14:56.783Z,22.33
2018-07-22T20:17:25.318Z,20.53
2018-07-22T20:19:53.833Z,19.20
2018-07-22T20:22:22.432Z,21.53
2018-07-22T20:24:51.056Z,19.17
2018-07-22T20:27:19.585Z,21.23
2018-07-22T20:29:48.166Z,19.90
2018-07-22T20:32:16.724Z,19.00
2018-07-22T20:34:45.368Z,18.30
2018-07-22T20:37:13.901Z,18.77
2018-07-22T20:39:42.515Z,18.33
2018-07-22T20:42:11.122Z,18.70
2018-07-22T20:44:40.742Z,19.70
2018-07-22T20:47:09.391Z,18.17
2018-07-22T20:49:37.970Z,19.63
2018-07-22T20:52:06.701Z,18.73
2018-07-22T20:54:35.262Z,18.20
2018-07-22T20:57:03.863Z,18.53
2018-07-22T20:59:32.489Z,18.37
2018-07-22T21:02:01.029Z,18.90
2018-07-22T21:04:29.690Z,18.80
2018-07-22T21:06:58.353Z,20.77
2018-07-22T21:09:26.978Z,19.33
2018-07-22T21:13:07.729Z,20.47
2018-07-22T21:15:36.420Z,19.73
2018-07-22T21:18:05.030Z,20.43
2018-07-22T21:20:33.532Z,19.47
2018-07-22T21:23:01.981Z,20.00
2018-07-22T21:25:30.555Z,21.13
2018-07-22T21:27:59.093Z,20.30
2018-07-22T21:30:28.696Z,19.63
2018-07-22T21:32:57.233Z,20.00
2018-07-22T21:35:25.795Z,18.33
2018-07-22T21:37:54.418Z,20.67
2018-07-22T21:40:22.970Z,20.00
2018-07-22T21:42:51.453Z,19.80
2018-07-22T21:45:20.034Z,21.23
2018-07-22T21:47:48.602Z,23.17
2018-07-22T21:50:17.219Z,21.63
2018-07-22T21:52:45.872Z,22.80
2018-07-22T21:55:14.380Z,21.43
2018-07-22T21:57:42.947Z,22.13
2018-07-22T22:00:22.165Z,21.60
2018-07-22T22:02:50.706Z,21.47
2018-07-22T22:05:19.321Z,23.13
2018-07-22T22:07:47.820Z,22.27
2018-07-22T22:10:16.427Z,21.90
2018-07-22T22:12:45.037Z,23.33
2018-07-22T22:15:27.162Z,24.37
2018-07-22T22:17:56.997Z,24.47
2018-07-22T22:20:26.027Z,24.00
2018-07-22T22:22:54.698Z,23.13
2018-07-22T22:25:23.300Z,24.07
2018-07-22T22:27:51.960Z,26.93
2018-07-22T22:30:20.611Z,24.30
2018-07-22T22:32:49.311Z,24.37
2018-07-22T22:35:17.570Z,24.97
2018-07-22T22:37:46.516Z,27.13
2018-07-22T22:40:15.709Z,27.13
2018-07-22T22:42:45.218Z,26.20
2018-07-22T22:45:14.233Z,24.90
2018-07-22T22:47:42.692Z,25.47
2018-07-22T22:50:11.269Z,23.70
2018-07-22T22:52:39.828Z,24.10
2018-07-22T22:55:08.433Z,25.40
2018-07-22T22:57:36.953Z,26.90
2018-07-22T23:00:06.340Z,28.10
2018-07-22T23:02:37.004Z,26.80
2018-07-22T23:05:07.215Z,29.90
2018-07-22T23:07:35.859Z,28.60
2018-07-22T23:10:04.982Z,28.17
2018-07-22T23:12:33.543Z,26.67
2018-07-22T23:15:02.089Z,27.70
2018-07-22T23:17:31.673Z,28.23
2018-07-22T23:20:00.172Z,28.47
2018-07-22T23:22:28.717Z,28.87
2018-07-22T23:24:57.288Z,28.93
2018-07-22T23:27:25.891Z,28.80
2018-07-22T23:29:54.361Z,27.57
2018-07-22T23:32:22.973Z,28.37
2018-07-22T23:34:51.517Z,30.17
2018-07-22T23:37:20.149Z,27.30
2018-07-22T23:39:48.769Z,29.20
2018-07-22T23:42:17.266Z,26.70
2018-07-22T23:44:45.936Z,27.00
2018-07-22T23:47:14.488Z,28.30
2018-07-22T23:49:43.060Z,27.67
2018-07-22T23:52:12.627Z,27.80
2018-07-22T23:54:41.193Z,26.87
2018-07-22T23:57:09.732Z,27.90
2018-07-22T23:59:38.253Z,24.80
